EIKY/KIR METAR and TAF weather

Enter ICAO airport designator
Station Type Date Time Source
EIKY METAR 2019/04/19 20:00 UTC NOAA

EIKY 192000Z 19003KT CAVOK 12/10 Q1030


Station Type Date Time Source
EIKY Decoded METAR 2019/04/19 20:00 UTC NOAA

Station name not available
Apr 19, 2019 - 04:00 PM EDT / 2019.04.19 2000 UTC
Wind: from the S (190 degrees) at 3 MPH (3 KT):0
Visibility: greater than 7 mile(s):0
Temperature: 53 F (12 C)
Dew Point: 50 F (10 C)
Relative Humidity: 87%
Pressure (altimeter): 30.42 in. Hg (1030 hPa)
ob: EIKY 192000Z 19003KT CAVOK 12/10 Q1030
cycle: 20

Station Type Date Time Source
EIKY TAF UTC NOAA

Error!

Example: see airport list